createdAt,value
2022-08-31T04:49:43.019Z,9.7
2022-08-31T04:51:57.333Z,7.7
2022-08-31T04:54:11.706Z,9.2
2022-08-31T04:56:26.085Z,9.3
2022-08-31T04:58:40.503Z,7.3
2022-08-31T05:00:54.889Z,10.4
2022-08-31T05:03:09.215Z,9.6
2022-08-31T05:05:23.616Z,8.7
2022-08-31T05:07:37.985Z,11.1
2022-08-31T05:09:52.329Z,6.6
2022-08-31T05:12:06.672Z,8.9
2022-08-31T05:14:21.040Z,9.2
2022-08-31T05:16:35.375Z,10.6
2022-08-31T05:18:50.384Z,8.6
2022-08-31T05:21:05.393Z,8.3
2022-08-31T05:23:19.907Z,8.2
2022-08-31T05:25:34.112Z,7.4
2022-08-31T05:27:48.460Z,7.6
2022-08-31T05:30:02.808Z,8.1
2022-08-31T05:32:17.121Z,8.8
2022-08-31T05:34:33.445Z,9.8
2022-08-31T05:36:47.762Z,8.4
2022-08-31T05:39:02.177Z,10.7
2022-08-31T05:41:16.566Z,7.5
2022-08-31T05:43:30.944Z,8.8
2022-08-31T05:45:45.277Z,8.8
2022-08-31T05:47:59.618Z,8.5
2022-08-31T05:50:13.947Z,12.4
2022-08-31T05:52:29.290Z,7.6
2022-08-31T05:54:43.603Z,8.5
2022-08-31T05:57:01.094Z,7.3
2022-08-31T05:59:15.256Z,12.9
2022-08-31T06:01:29.626Z,8.6
2022-08-31T06:03:44.002Z,8.3
2022-08-31T06:05:58.346Z,8.6
2022-08-31T06:08:15.379Z,6.2
2022-08-31T06:10:29.264Z,8.9
2022-08-31T06:12:43.630Z,9.7
2022-08-31T06:14:58.096Z,9.4
2022-08-31T06:17:12.471Z,7.5
2022-08-31T06:19:26.823Z,8.7
2022-08-31T06:21:49.221Z,11.3
2022-08-31T06:23:58.512Z,9.6
2022-08-31T06:26:12.845Z,8.5
2022-08-31T06:28:27.209Z,11.7
2022-08-31T06:30:54.675Z,13.6
2022-08-31T06:32:59.903Z,9.5
2022-08-31T06:35:14.267Z,11.2
2022-08-31T06:37:28.603Z,8.7
2022-08-31T06:39:44.397Z,11
2022-08-31T06:41:59.256Z,11.2
2022-08-31T06:44:13.600Z,10.5
2022-08-31T06:46:28.004Z,12.2
2022-08-31T06:48:42.356Z,10.7
2022-08-31T06:50:56.711Z,9.7
2022-08-31T06:53:11.129Z,11
2022-08-31T06:55:25.425Z,13.4
2022-08-31T06:57:39.850Z,9.7
2022-08-31T06:59:54.236Z,11.8
2022-08-31T07:02:08.743Z,14.8
2022-08-31T07:04:22.991Z,15
2022-08-31T07:06:37.341Z,10.8
2022-08-31T07:08:51.689Z,13.1
2022-08-31T07:11:06.033Z,13.3
2022-08-31T07:13:20.583Z,10
2022-08-31T07:15:34.734Z,12.3
2022-08-31T07:17:49.138Z,10.7
2022-08-31T07:20:03.519Z,10.6
2022-08-31T07:22:18.639Z,16.5
2022-08-31T07:24:32.970Z,14.9
2022-08-31T07:26:47.321Z,12.1
2022-08-31T07:29:01.641Z,10.3
2022-08-31T07:31:16.060Z,12.6
2022-08-31T07:33:30.318Z,12.4
2022-08-31T07:35:44.725Z,12.4
2022-08-31T07:37:59.095Z,24.200001
2022-08-31T07:40:13.566Z,14.8
2022-08-31T07:42:27.847Z,11.4
2022-08-31T07:44:42.210Z,12.1
2022-08-31T07:46:58.540Z,33.5
2022-08-31T07:49:13.868Z,15
2022-08-31T07:51:28.210Z,16.5
2022-08-31T07:53:42.550Z,10.6
2022-08-31T07:55:56.914Z,17.799999
2022-08-31T07:58:11.317Z,13
2022-08-31T08:00:25.752Z,14.8
2022-08-31T08:02:40.143Z,11.5
2022-08-31T08:04:54.564Z,12.9
2022-08-31T08:07:09.932Z,12.6
2022-08-31T08:09:25.337Z,15.3
2022-08-31T08:11:39.609Z,13
2022-08-31T08:13:53.971Z,13.5
2022-08-31T08:16:08.351Z,14.7
2022-08-31T08:18:22.679Z,11.8
2022-08-31T08:20:38.944Z,10.4
2022-08-31T08:22:55.054Z,10.6
2022-08-31T08:25:09.618Z,12.4
2022-08-31T08:27:23.984Z,11.6
2022-08-31T08:29:38.633Z,12.9
2022-08-31T08:31:53.132Z,12.3
2022-08-31T08:34:08.315Z,11.1
2022-08-31T08:36:22.659Z,12.5
2022-08-31T08:38:36.994Z,11.4
2022-08-31T08:40:51.448Z,10.9
2022-08-31T08:43:05.715Z,12.6
2022-08-31T08:45:20.049Z,11.8
2022-08-31T08:47:38.206Z,10.8
2022-08-31T08:49:54.631Z,12.8
2022-08-31T08:52:08.065Z,12.4
2022-08-31T08:54:22.491Z,11.6
2022-08-31T08:56:37.813Z,10.3
2022-08-31T08:58:52.157Z,11.5
2022-08-31T09:01:06.548Z,9.7
2022-08-31T09:03:20.994Z,9.2
2022-08-31T09:05:35.202Z,9.9
2022-08-31T09:07:49.521Z,10.3
2022-08-31T09:10:03.852Z,9.8
2022-08-31T09:12:18.275Z,9.1
2022-08-31T09:14:32.599Z,12.5
2022-08-31T09:16:46.981Z,12.2
2022-08-31T09:19:01.316Z,12.4
2022-08-31T09:21:15.665Z,11.6
2022-08-31T09:23:30.058Z,9.1
2022-08-31T09:25:44.557Z,8.4
2022-08-31T09:27:58.924Z,6.2
2022-08-31T09:30:13.327Z,6.6
2022-08-31T09:32:27.683Z,6
2022-08-31T09:34:42.143Z,4.7
2022-08-31T09:36:56.465Z,5.6
2022-08-31T09:39:10.863Z,3.7
2022-08-31T09:41:25.269Z,4.4
2022-08-31T09:43:41.211Z,4.1
2022-08-31T09:45:55.120Z,4.5
2022-08-31T09:48:09.418Z,4.1
2022-08-31T09:50:23.861Z,4.4
2022-08-31T09:52:38.225Z,4.5
2022-08-31T09:54:52.560Z,4.4
2022-08-31T09:57:06.927Z,3.8
2022-08-31T09:59:21.255Z,4
2022-08-31T10:01:35.767Z,4
2022-08-31T10:03:50.058Z,6.4
2022-08-31T10:06:05.384Z,3.9
2022-08-31T10:08:20.696Z,5.4
2022-08-31T10:10:35.084Z,4.4
2022-08-31T10:12:49.470Z,4.2
2022-08-31T10:15:03.821Z,5.3
2022-08-31T10:17:18.215Z,5
2022-08-31T10:19:32.556Z,3.7
2022-08-31T10:21:46.913Z,4.1
2022-08-31T10:24:01.259Z,4.9
2022-08-31T10:26:15.590Z,3.6
2022-08-31T10:28:30.256Z,4.1
2022-08-31T10:30:44.607Z,2.7
2022-08-31T10:32:58.964Z,2.8
2022-08-31T10:35:13.297Z,3.2
2022-08-31T10:37:28.637Z,3.2
2022-08-31T10:39:42.968Z,2.8
2022-08-31T10:41:58.305Z,3.2
2022-08-31T10:44:12.644Z,3.4
2022-08-31T10:46:27.043Z,2.2
2022-08-31T10:48:41.351Z,3.4
2022-08-31T10:50:56.687Z,2.4
2022-08-31T10:53:11.046Z,2.4
2022-08-31T10:55:25.375Z,2.2
2022-08-31T10:57:39.762Z,3.1
2022-08-31T10:59:56.111Z,3.2
2022-08-31T11:02:10.556Z,3.2
2022-08-31T11:04:26.070Z,2.7
2022-08-31T11:06:41.261Z,2.2
2022-08-31T11:08:55.601Z,2.2
2022-08-31T11:11:10.010Z,2.5
2022-08-31T11:13:24.398Z,2.4
2022-08-31T11:15:38.748Z,2.5
2022-08-31T11:17:53.168Z,2.2
2022-08-31T11:20:07.512Z,2.6
2022-08-31T11:22:21.933Z,2.6
2022-08-31T11:24:37.721Z,2.7
2022-08-31T11:26:51.634Z,3.9
2022-08-31T11:29:06.008Z,2.7
2022-08-31T11:31:20.469Z,3.3
2022-08-31T11:33:34.680Z,2.6
2022-08-31T11:35:49.040Z,4.7
2022-08-31T11:38:03.367Z,2.7
2022-08-31T11:40:18.776Z,4.9
2022-08-31T11:42:33.075Z,4.2
2022-08-31T11:44:47.438Z,3.5
2022-08-31T11:47:01.865Z,2.5
2022-08-31T11:49:18.206Z,3
2022-08-31T11:51:35.070Z,2.9
2022-08-31T11:53:48.849Z,2.6
2022-08-31T11:56:03.233Z,4.1
2022-08-31T11:58:20.717Z,2.8
2022-08-31T12:00:34.011Z,4.2
2022-08-31T12:02:48.396Z,3.6
2022-08-31T12:05:02.876Z,4.3
2022-08-31T12:07:18.061Z,2.2
2022-08-31T12:09:32.412Z,3.4
2022-08-31T12:11:46.801Z,2.8
2022-08-31T12:14:01.135Z,5.8
2022-08-31T12:16:15.539Z,3.9
2022-08-31T12:18:29.868Z,5.1
2022-08-31T12:20:44.179Z,5
2022-08-31T12:22:58.561Z,4.3
2022-08-31T12:25:13.009Z,4.3
2022-08-31T12:27:27.364Z,4.6
2022-08-31T12:29:41.715Z,3.2
2022-08-31T12:31:56.069Z,3.4
2022-08-31T12:34:11.394Z,2.8
2022-08-31T12:36:25.805Z,2.3
2022-08-31T12:38:41.107Z,2.7
2022-08-31T12:40:56.476Z,2.5
2022-08-31T12:43:11.023Z,2.5
2022-08-31T12:45:26.775Z,6.6
2022-08-31T12:47:41.281Z,2.9
2022-08-31T12:49:55.850Z,3.2
2022-08-31T12:52:10.629Z,3.1
2022-08-31T12:54:25.081Z,5
2022-08-31T12:56:39.638Z,4.2
2022-08-31T12:58:54.623Z,3.5
2022-08-31T13:01:09.990Z,2.8
2022-08-31T13:03:25.284Z,2.6
2022-08-31T13:05:39.640Z,3.5
2022-08-31T13:07:54.107Z,3
2022-08-31T13:10:08.580Z,3
2022-08-31T13:12:23.194Z,2.9
2022-08-31T13:14:37.921Z,4.8
2022-08-31T13:16:52.292Z,3.2
2022-08-31T13:19:07.705Z,3.4
2022-08-31T13:21:22.369Z,3.4
2022-08-31T13:23:37.952Z,4.1
2022-08-31T13:25:52.827Z,3.9
2022-08-31T13:28:07.185Z,5.7
2022-08-31T13:30:22.535Z,3.4
2022-08-31T13:32:38.860Z,4.2
2022-08-31T13:34:53.219Z,5
2022-08-31T13:37:07.830Z,3.7
2022-08-31T13:39:22.157Z,5.5
2022-08-31T13:41:39.080Z,4.8
2022-08-31T13:43:53.432Z,4.8
2022-08-31T13:46:07.844Z,6.7
2022-08-31T13:48:22.227Z,6.3
2022-08-31T13:50:36.718Z,4.5
2022-08-31T13:53:04.390Z,4.8
2022-08-31T13:55:08.374Z,4.5
2022-08-31T13:57:22.916Z,4.9
2022-08-31T13:59:37.332Z,5.2
2022-08-31T14:01:51.829Z,4.6
2022-08-31T14:04:06.208Z,6.9
2022-08-31T14:06:20.609Z,4.1
2022-08-31T14:08:34.965Z,7.8
2022-08-31T14:10:49.336Z,5
2022-08-31T14:13:04.720Z,6.4
2022-08-31T14:15:19.077Z,4.8
2022-08-31T14:17:33.452Z,5.2
2022-08-31T14:19:47.816Z,7.7
2022-08-31T14:22:02.192Z,4.5
2022-08-31T14:24:16.712Z,5.8
2022-08-31T14:26:31.000Z,5.8
2022-08-31T14:28:45.342Z,6.6
2022-08-31T14:30:59.778Z,6.8
2022-08-31T14:33:14.069Z,4.9
2022-08-31T14:35:30.501Z,7.1
2022-08-31T14:37:44.858Z,6
2022-08-31T14:40:01.918Z,5.4
2022-08-31T14:42:15.523Z,5.7
2022-08-31T14:44:29.885Z,5.6
2022-08-31T14:46:44.351Z,5.6
2022-08-31T14:48:58.689Z,5.4
2022-08-31T14:51:13.069Z,6.4
2022-08-31T14:53:27.405Z,4.7
2022-08-31T14:55:41.773Z,5.5
2022-08-31T14:57:56.118Z,9.4
2022-08-31T15:00:10.485Z,6.5
2022-08-31T15:02:24.881Z,7.2
2022-08-31T15:04:42.935Z,6.5
2022-08-31T15:06:56.513Z,6.6
2022-08-31T15:09:10.859Z,7.6
2022-08-31T15:11:25.443Z,4.9
2022-08-31T15:13:39.888Z,6.2
2022-08-31T15:15:54.260Z,6.1
2022-08-31T15:18:09.640Z,4.3
2022-08-31T15:20:24.078Z,5.5
2022-08-31T15:22:38.440Z,3.8
2022-08-31T15:24:52.799Z,3.5
2022-08-31T15:27:07.207Z,4.1
2022-08-31T15:29:21.839Z,3.7
2022-08-31T15:31:36.252Z,3.8
2022-08-31T15:33:50.651Z,3.4
2022-08-31T15:36:04.996Z,3.5
2022-08-31T15:38:19.558Z,4.2
2022-08-31T15:40:38.527Z,3
2022-08-31T15:42:51.105Z,3.3
2022-08-31T15:45:06.628Z,4.2
2022-08-31T15:47:20.958Z,5.4
2022-08-31T15:49:36.432Z,2.9
2022-08-31T15:51:50.953Z,4.6
2022-08-31T15:54:21.519Z,5.1
2022-08-31T15:56:22.918Z,4.6
2022-08-31T15:58:37.439Z,3.3
2022-08-31T16:00:52.006Z,3.1
2022-08-31T16:03:06.472Z,6.4
2022-08-31T16:05:21.972Z,5
2022-08-31T16:07:36.510Z,3
2022-08-31T16:09:50.963Z,3.6
2022-08-31T16:12:05.462Z,3.1
2022-08-31T16:14:19.989Z,3.6
2022-08-31T16:16:34.769Z,3.4
2022-08-31T16:18:49.188Z,4.5
2022-08-31T16:21:04.897Z,5
2022-08-31T16:23:19.370Z,3.2
2022-08-31T16:25:48.042Z,3.8
2022-08-31T16:27:51.427Z,6.3
2022-08-31T16:30:05.931Z,5.1
2022-08-31T16:32:20.482Z,3.4
2022-08-31T16:34:34.953Z,6.2
2022-08-31T16:36:49.482Z,4.3
2022-08-31T16:39:03.976Z,5.6
2022-08-31T16:41:18.530Z,4.7
2022-08-31T16:43:32.983Z,4.7
2022-08-31T16:45:47.533Z,6.4
2022-08-31T16:48:02.034Z,3.5
2022-08-31T16:50:16.552Z,4.5
2022-08-31T16:52:31.077Z,3.8
2022-08-31T16:54:45.700Z,4.1
2022-08-31T16:57:00.287Z,6.2
2022-08-31T16:59:14.826Z,3.9
2022-08-31T17:01:29.525Z,3.5
2022-08-31T17:03:44.193Z,6
2022-08-31T17:05:58.687Z,3.5
2022-08-31T17:08:13.167Z,4.1
2022-08-31T17:10:27.676Z,5.2
2022-08-31T17:12:42.150Z,4.4
2022-08-31T17:14:56.687Z,3.1
2022-08-31T17:17:11.161Z,3
2022-08-31T17:19:25.644Z,3.2
2022-08-31T17:21:41.136Z,3.6
2022-08-31T17:23:55.637Z,4
2022-08-31T17:26:10.175Z,3.4
2022-08-31T17:28:24.673Z,7.9
2022-08-31T17:30:39.149Z,3.5
2022-08-31T17:32:53.704Z,4.6
2022-08-31T17:35:08.278Z,3.2
2022-08-31T17:37:23.767Z,3.7
2022-08-31T17:39:38.442Z,5.9
2022-08-31T17:41:52.958Z,3.6
2022-08-31T17:44:07.489Z,5.1
2022-08-31T17:46:22.166Z,4
2022-08-31T17:48:36.617Z,7.9
2022-08-31T17:50:51.134Z,7.5
2022-08-31T17:53:05.669Z,5.9
2022-08-31T17:55:20.288Z,5.5
2022-08-31T17:57:34.792Z,13.3
2022-08-31T17:59:49.335Z,3.8
2022-08-31T18:02:03.899Z,8.3
2022-08-31T18:04:18.511Z,5.5
2022-08-31T18:06:32.880Z,5.6
2022-08-31T18:08:47.370Z,4.5
2022-08-31T18:11:01.856Z,6.7
2022-08-31T18:13:16.386Z,7.2
2022-08-31T18:15:30.953Z,5
2022-08-31T18:17:45.473Z,4.9
2022-08-31T18:20:00.385Z,5.2
2022-08-31T18:22:14.853Z,4.6
2022-08-31T18:24:29.375Z,6
2022-08-31T18:26:43.834Z,3.4
2022-08-31T18:28:58.383Z,4.4
2022-08-31T18:31:13.001Z,3.8
2022-08-31T18:33:27.530Z,4.8
2022-08-31T18:35:43.005Z,3.6
2022-08-31T18:37:57.536Z,4.3
2022-08-31T18:40:12.140Z,3.3
2022-08-31T18:42:26.514Z,3.3
2022-08-31T18:44:41.011Z,4.1
2022-08-31T18:46:55.553Z,4.1
2022-08-31T18:49:12.370Z,6.1
2022-08-31T18:51:27.729Z,4.1
2022-08-31T18:53:42.221Z,4.3
2022-08-31T18:55:56.809Z,3.3
2022-08-31T18:58:11.549Z,3.7
2022-08-31T19:00:27.167Z,4.7
2022-08-31T19:02:41.521Z,3.7
2022-08-31T19:04:56.128Z,3.3
2022-08-31T19:07:10.743Z,3.8
2022-08-31T19:09:26.300Z,3.8
2022-08-31T19:11:41.953Z,4.9
2022-08-31T19:13:56.391Z,3.6
2022-08-31T19:16:15.638Z,3.4
2022-08-31T19:18:29.331Z,4.5
2022-08-31T19:20:43.955Z,4.7
2022-08-31T19:23:00.280Z,3.6
2022-08-31T19:25:18.215Z,3.3
2022-08-31T19:27:31.388Z,3.4
2022-08-31T19:29:45.921Z,3.3
2022-08-31T19:32:00.386Z,3.6
2022-08-31T19:34:14.876Z,5.6
2022-08-31T19:36:29.435Z,3.3
2022-08-31T19:38:43.917Z,4.4
2022-08-31T19:40:59.506Z,3.2
2022-08-31T19:45:43.564Z,3.7
2022-08-31T19:47:48.985Z,4.6
2022-08-31T19:50:03.451Z,4.5
2022-08-31T19:52:17.991Z,3.4
2022-08-31T19:54:33.467Z,3.5
2022-08-31T19:56:48.020Z,5.4
2022-08-31T19:59:02.521Z,4.8
2022-08-31T20:01:18.156Z,6.6
2022-08-31T20:03:32.466Z,4.9
2022-08-31T20:05:46.983Z,3.5
2022-08-31T20:08:01.464Z,5.1
2022-08-31T20:10:16.948Z,4.8
2022-08-31T20:12:31.457Z,3.6
2022-08-31T20:14:45.918Z,4
2022-08-31T20:17:00.503Z,3.9
2022-08-31T20:19:15.246Z,4.7
2022-08-31T20:21:29.726Z,3.5
2022-08-31T20:23:44.226Z,5.6
2022-08-31T20:25:59.747Z,4.9
2022-08-31T20:28:14.174Z,4.5
2022-08-31T20:30:28.693Z,3.9
2022-08-31T20:32:44.162Z,4.2
2022-08-31T20:34:58.687Z,4.3
2022-08-31T20:37:12.152Z,4.1
2022-08-31T20:39:26.637Z,5.1
2022-08-31T20:41:42.125Z,3.6
2022-08-31T20:43:57.612Z,6.1
2022-08-31T20:46:12.088Z,4.4
2022-08-31T20:48:26.570Z,6.1
2022-08-31T20:50:40.933Z,7.4
2022-08-31T20:52:57.373Z,6.1
2022-08-31T20:55:11.758Z,5.1
2022-08-31T20:57:26.102Z,5
2022-08-31T20:59:40.428Z,8.5
2022-08-31T21:01:54.851Z,6
2022-08-31T21:04:09.146Z,6.4
2022-08-31T21:06:23.502Z,7
2022-08-31T21:08:37.833Z,6.8
2022-08-31T21:10:52.192Z,6.7
2022-08-31T21:13:06.524Z,5.4
2022-08-31T21:15:20.872Z,4.7
2022-08-31T21:17:35.206Z,4.3
2022-08-31T21:19:49.574Z,6.8
2022-08-31T21:22:03.938Z,5.7
2022-08-31T21:24:18.299Z,3.4
2022-08-31T21:26:35.509Z,4.1
2022-08-31T21:28:49.008Z,3.5
